createdAt,value
2023-03-26T00:00:48.765Z,6.04
2023-03-26T00:01:48.771Z,6.04
2023-03-26T00:02:48.762Z,6.04
2023-03-26T00:03:48.730Z,6.02
2023-03-26T00:04:48.722Z,6.04
2023-03-26T00:05:48.733Z,6.08
2023-03-26T00:06:48.724Z,6.11
2023-03-26T00:07:48.680Z,6.11
2023-03-26T00:08:48.696Z,6.12
2023-03-26T00:09:48.661Z,6.17
2023-03-26T00:10:48.664Z,6.19
2023-03-26T00:11:48.651Z,6.20
2023-03-26T00:12:48.628Z,6.20
2023-03-26T00:13:48.627Z,6.24
2023-03-26T00:14:48.604Z,6.27
2023-03-26T00:15:48.590Z,6.27
2023-03-26T00:16:48.630Z,6.26
2023-03-26T00:17:48.635Z,6.31
2023-03-26T00:18:48.568Z,6.33
2023-03-26T00:19:48.560Z,6.35
2023-03-26T00:20:48.549Z,6.31
2023-03-26T00:21:48.556Z,6.30
2023-03-26T00:22:48.521Z,6.33
2023-03-26T00:23:48.517Z,6.31
2023-03-26T00:24:48.518Z,6.28
2023-03-26T00:25:49.571Z,6.26
2023-03-26T00:26:48.558Z,6.27
2023-03-26T00:27:48.463Z,6.24
2023-03-26T00:28:48.468Z,6.20
2023-03-26T00:29:48.472Z,6.22
2023-03-26T00:30:48.486Z,6.26
2023-03-26T00:31:48.497Z,6.27
2023-03-26T00:32:53.428Z,6.30
2023-03-26T00:33:48.424Z,6.33
2023-03-26T00:34:48.414Z,6.35
2023-03-26T00:38:10.990Z,6.39
2023-03-26T00:39:11.965Z,6.41
2023-03-26T00:40:11.952Z,6.42
2023-03-26T00:41:11.950Z,6.42
2023-03-26T00:42:11.913Z,6.44
2023-03-26T00:43:11.911Z,6.44
2023-03-26T00:44:11.903Z,6.44
2023-03-26T00:45:11.891Z,6.44
2023-03-26T00:46:11.949Z,6.44
2023-03-26T00:47:11.874Z,6.45
2023-03-26T00:48:11.851Z,6.46
2023-03-26T00:49:11.854Z,6.42
2023-03-26T00:50:11.838Z,6.44
2023-03-26T00:51:11.859Z,6.42
2023-03-26T00:52:11.806Z,6.44
2023-03-26T00:53:11.809Z,6.41
2023-03-26T00:54:11.793Z,6.42
2023-03-26T00:55:11.799Z,6.45
2023-03-26T00:56:11.803Z,6.44
2023-03-26T00:57:11.869Z,6.45
2023-03-26T00:58:11.762Z,6.45
2023-03-26T00:59:11.775Z,6.48
2023-03-26T01:00:11.733Z,6.49
2023-03-26T01:01:11.755Z,6.49
2023-03-26T01:02:11.731Z,6.44
2023-03-26T01:03:12.953Z,6.45
2023-03-26T01:04:11.728Z,6.44
2023-03-26T01:05:11.739Z,6.46
2023-03-26T01:06:11.687Z,6.49
2023-03-26T01:07:11.672Z,6.46
2023-03-26T01:08:11.665Z,6.48
2023-03-26T01:09:11.636Z,6.45
2023-03-26T01:10:11.628Z,6.44
2023-03-26T01:11:11.631Z,6.42
2023-03-26T01:12:11.623Z,6.42
2023-03-26T01:13:11.590Z,6.44
2023-03-26T01:14:11.586Z,6.38
2023-03-26T01:15:11.584Z,6.41
2023-03-26T01:16:11.612Z,6.39
2023-03-26T01:17:11.572Z,6.41
2023-03-26T01:18:11.537Z,6.39
2023-03-26T01:19:11.528Z,6.39
2023-03-26T01:20:11.525Z,6.41
2023-03-26T01:21:11.516Z,6.42
2023-03-26T01:22:11.516Z,6.42
2023-03-26T01:23:11.490Z,6.44
2023-03-26T01:24:11.481Z,6.38
2023-03-26T01:25:11.467Z,6.39
2023-03-26T01:26:11.477Z,6.39
2023-03-26T01:27:11.450Z,6.36
2023-03-26T01:28:11.427Z,6.39
2023-03-26T01:29:11.428Z,6.39
2023-03-26T01:30:11.413Z,6.39
2023-03-26T01:31:11.656Z,6.39
2023-03-26T01:32:11.441Z,6.39
2023-03-26T01:33:11.460Z,6.36
2023-03-26T01:34:11.380Z,6.36
2023-03-26T01:35:11.362Z,6.39
2023-03-26T01:36:11.416Z,6.41
2023-03-26T01:37:11.354Z,6.41
2023-03-26T01:38:11.333Z,6.41
2023-03-26T01:39:11.319Z,6.39
2023-03-26T01:40:11.313Z,6.41
2023-03-26T01:41:11.318Z,6.41
2023-03-26T01:42:11.288Z,6.39
2023-03-26T01:43:11.303Z,6.39
2023-03-26T01:44:11.265Z,6.38
2023-03-26T01:45:11.274Z,6.38
2023-03-26T01:46:11.300Z,6.38
2023-03-26T01:47:11.268Z,6.39
2023-03-26T01:48:11.219Z,6.39
2023-03-26T01:49:11.214Z,6.39
2023-03-26T01:50:11.194Z,6.39
2023-03-26T01:51:11.210Z,6.38
2023-03-26T01:52:11.213Z,6.38
2023-03-26T01:53:11.169Z,6.39
2023-03-26T01:54:11.164Z,6.38
2023-03-26T01:55:11.159Z,6.38
2023-03-26T01:56:11.163Z,6.36
2023-03-26T01:57:11.200Z,6.35
2023-03-26T01:58:11.162Z,6.36
2023-03-26T01:59:11.111Z,6.38
2023-03-26T02:00:11.104Z,6.36
2023-03-26T02:01:11.095Z,6.36
2023-03-26T02:02:11.189Z,6.35
2023-03-26T02:03:11.131Z,6.39
2023-03-26T02:04:11.072Z,6.41
2023-03-26T02:05:11.050Z,6.41
2023-03-26T02:06:11.050Z,6.41
2023-03-26T02:07:11.060Z,6.39
2023-03-26T02:08:11.010Z,6.39
2023-03-26T02:09:11.017Z,6.41
2023-03-26T02:10:10.991Z,6.36
2023-03-26T02:11:11.533Z,6.38
2023-03-26T02:12:11.006Z,6.38
2023-03-26T02:13:10.962Z,6.36
2023-03-26T02:14:10.970Z,6.35
2023-03-26T02:15:10.944Z,6.35
2023-03-26T02:16:10.987Z,6.31
2023-03-26T02:17:10.942Z,6.30
2023-03-26T02:18:10.963Z,6.31
2023-03-26T02:19:10.918Z,6.31
2023-03-26T02:20:10.905Z,6.30
2023-03-26T02:21:10.883Z,6.31
2023-03-26T02:22:10.897Z,6.30
2023-03-26T02:23:10.864Z,6.33
2023-03-26T02:24:10.844Z,6.33
2023-03-26T02:25:10.842Z,6.31
2023-03-26T02:26:10.833Z,6.33
2023-03-26T02:27:10.844Z,6.33
2023-03-26T02:28:10.800Z,6.30
2023-03-26T02:29:10.802Z,6.28
2023-03-26T02:30:10.785Z,6.28
2023-03-26T02:31:10.783Z,6.26
2023-03-26T02:32:10.818Z,6.24
2023-03-26T02:33:10.771Z,6.24
2023-03-26T02:34:10.751Z,6.27
2023-03-26T02:35:10.763Z,6.24
2023-03-26T02:36:10.866Z,6.24
2023-03-26T02:37:10.725Z,6.26
2023-03-26T02:38:10.706Z,6.26
2023-03-26T02:39:10.749Z,6.24
2023-03-26T02:40:10.680Z,6.26
2023-03-26T02:41:10.669Z,6.24
2023-03-26T02:42:10.690Z,6.22
2023-03-26T02:43:10.667Z,6.22
2023-03-26T02:44:10.640Z,6.19
2023-03-26T02:45:10.632Z,6.20
2023-03-26T02:46:10.656Z,6.20
2023-03-26T02:47:10.651Z,6.17
2023-03-26T02:48:10.633Z,6.20
2023-03-26T02:49:10.580Z,6.17
2023-03-26T02:50:10.591Z,6.17
2023-03-26T02:51:10.580Z,6.16
2023-03-26T02:52:10.619Z,6.16
2023-03-26T02:53:10.543Z,6.16
2023-03-26T02:54:10.539Z,6.17
2023-03-26T02:55:10.523Z,6.16
2023-03-26T02:56:10.515Z,6.12
2023-03-26T02:57:10.617Z,6.16
2023-03-26T02:58:10.493Z,6.14
2023-03-26T02:59:10.478Z,6.16
2023-03-26T03:00:10.475Z,6.14
2023-03-26T03:01:10.495Z,6.14
2023-03-26T03:02:10.472Z,6.14
2023-03-26T03:03:10.500Z,6.16
2023-03-26T03:04:10.437Z,6.14
2023-03-26T03:05:10.422Z,6.12
2023-03-26T03:06:10.412Z,6.11
2023-03-26T03:07:10.395Z,6.11
2023-03-26T03:08:10.415Z,6.12
2023-03-26T03:09:10.369Z,6.09
2023-03-26T03:10:10.375Z,6.09
2023-03-26T03:11:10.382Z,6.07
2023-03-26T03:12:10.351Z,6.09
2023-03-26T03:13:10.372Z,6.09
2023-03-26T03:14:10.325Z,6.11
2023-03-26T03:15:10.311Z,6.07
2023-03-26T03:16:10.324Z,6.08
2023-03-26T03:17:10.309Z,6.07
2023-03-26T03:18:10.299Z,6.05
2023-03-26T03:19:10.268Z,6.08
2023-03-26T03:20:10.265Z,6.08
2023-03-26T03:21:10.248Z,6.07
2023-03-26T03:22:10.249Z,6.05
2023-03-26T03:23:10.273Z,6.01
2023-03-26T03:24:10.224Z,6.05
2023-03-26T03:25:10.208Z,6.04
2023-03-26T03:26:10.229Z,6.04
2023-03-26T03:27:10.313Z,6.04
2023-03-26T03:28:10.203Z,6.05
2023-03-26T03:29:10.163Z,6.05
2023-03-26T03:30:10.166Z,6.05
2023-03-26T03:31:10.200Z,6.08
2023-03-26T03:32:10.145Z,6.07
2023-03-26T03:33:10.179Z,6.05
2023-03-26T03:34:10.121Z,6.07
2023-03-26T03:35:10.117Z,6.07
2023-03-26T03:36:10.214Z,6.08
2023-03-26T03:37:10.090Z,6.05
2023-03-26T03:38:10.111Z,6.05
2023-03-26T03:39:10.066Z,6.04
2023-03-26T03:40:10.082Z,6.07
2023-03-26T03:41:10.062Z,6.08
2023-03-26T03:42:10.048Z,6.07
2023-03-26T03:43:10.064Z,6.08
2023-03-26T03:44:10.032Z,6.11
2023-03-26T03:45:10.038Z,6.09
2023-03-26T03:46:10.018Z,6.07
2023-03-26T03:47:09.978Z,6.08
2023-03-26T03:48:10.021Z,6.05
2023-03-26T03:49:09.962Z,6.05
2023-03-26T03:50:09.980Z,6.05
2023-03-26T03:51:09.946Z,6.05
2023-03-26T03:52:09.949Z,6.07
2023-03-26T03:53:10.073Z,6.11
2023-03-26T03:54:09.925Z,6.11
2023-03-26T03:55:09.900Z,6.11
2023-03-26T03:56:09.895Z,6.09
2023-03-26T03:57:09.960Z,6.08
2023-03-26T03:58:09.891Z,6.07
2023-03-26T03:59:09.881Z,6.05
2023-03-26T04:00:09.854Z,6.02
2023-03-26T04:01:09.839Z,6.04
2023-03-26T04:02:09.849Z,6.04
2023-03-26T04:03:09.996Z,6.02
2023-03-26T04:04:09.871Z,6.04
2023-03-26T04:05:09.811Z,5.99
2023-03-26T04:06:09.787Z,5.98
2023-03-26T04:07:09.775Z,5.99
2023-03-26T04:08:09.782Z,5.98
2023-03-26T04:09:09.766Z,5.98
2023-03-26T04:10:09.756Z,5.97
2023-03-26T04:11:09.727Z,5.93
2023-03-26T04:12:09.722Z,5.94
2023-03-26T04:13:09.743Z,5.94
2023-03-26T04:14:09.707Z,5.94
2023-03-26T04:15:09.691Z,5.94
2023-03-26T04:16:09.820Z,5.94
2023-03-26T04:17:09.667Z,5.94
2023-03-26T04:18:09.726Z,5.98
2023-03-26T04:19:09.651Z,5.99
2023-03-26T04:20:09.650Z,5.97
2023-03-26T04:21:09.629Z,5.98
2023-03-26T04:22:09.632Z,5.99
2023-03-26T04:23:09.658Z,6.02
2023-03-26T04:24:09.613Z,6.02
2023-03-26T04:25:09.592Z,6.02
2023-03-26T04:26:09.586Z,6.04
2023-03-26T04:27:09.566Z,6.04
2023-03-26T04:28:09.570Z,6.02
2023-03-26T04:29:09.548Z,6.04
2023-03-26T04:30:09.539Z,6.04
2023-03-26T04:31:09.559Z,6.07
2023-03-26T04:32:09.530Z,6.02
2023-03-26T04:33:09.525Z,6.04
2023-03-26T04:34:09.491Z,6.05
2023-03-26T04:35:09.472Z,6.05
2023-03-26T04:36:09.499Z,6.07
2023-03-26T04:37:09.531Z,6.08
2023-03-26T04:38:09.450Z,6.07
2023-03-26T04:39:09.477Z,6.08
2023-03-26T04:40:09.436Z,6.04
2023-03-26T04:41:09.372Z,6.07
2023-03-26T04:42:09.355Z,6.07
2023-03-26T04:43:09.401Z,6.04
2023-03-26T04:44:09.418Z,6.05
2023-03-26T04:45:09.334Z,6.04
2023-03-26T04:46:09.321Z,6.07
2023-03-26T04:47:09.359Z,6.09
2023-03-26T04:48:09.302Z,6.07
2023-03-26T04:49:09.307Z,6.07
2023-03-26T04:50:09.295Z,6.04
2023-03-26T04:51:09.251Z,6.04
2023-03-26T04:52:09.244Z,6.05
2023-03-26T04:53:09.232Z,6.07
2023-03-26T04:54:09.244Z,6.05
2023-03-26T04:55:09.210Z,6.08
2023-03-26T04:56:09.208Z,6.11
2023-03-26T04:57:09.274Z,6.14
2023-03-26T04:58:09.201Z,6.14
2023-03-26T04:59:09.187Z,6.14
2023-03-26T05:00:09.164Z,6.17
2023-03-26T05:01:10.571Z,6.19
2023-03-26T05:02:09.134Z,6.19
2023-03-26T05:03:09.180Z,6.19
2023-03-26T05:04:09.193Z,6.17
2023-03-26T05:05:09.104Z,6.19
2023-03-26T05:06:09.101Z,6.19
2023-03-26T05:07:09.093Z,6.16
2023-03-26T05:08:09.088Z,6.17
2023-03-26T05:09:09.078Z,6.11
2023-03-26T05:10:09.057Z,6.12
2023-03-26T05:11:09.037Z,6.09
2023-03-26T05:12:09.036Z,6.07
2023-03-26T05:13:09.025Z,6.02
2023-03-26T05:14:09.062Z,6.04
2023-03-26T05:15:09.016Z,6.01
2023-03-26T05:16:09.050Z,6.01
2023-03-26T05:17:08.979Z,5.98
2023-03-26T05:18:09.074Z,5.99
2023-03-26T05:19:09.019Z,6.02
2023-03-26T05:20:08.951Z,6.08
2023-03-26T05:21:08.936Z,6.12
2023-03-26T05:22:08.928Z,6.16
2023-03-26T05:23:08.918Z,6.20
2023-03-26T05:24:08.959Z,6.24
2023-03-26T05:25:08.895Z,6.28
2023-03-26T05:26:08.897Z,6.31
2023-03-26T05:27:08.875Z,6.31
2023-03-26T05:28:08.875Z,6.36
2023-03-26T05:29:08.889Z,6.39
2023-03-26T05:30:08.854Z,6.41
2023-03-26T05:31:08.832Z,6.44
2023-03-26T05:32:08.822Z,6.48
2023-03-26T05:33:08.870Z,6.46
2023-03-26T05:34:08.831Z,6.51
2023-03-26T05:35:08.787Z,6.49
2023-03-26T05:36:08.787Z,6.54
2023-03-26T05:37:08.768Z,6.59
2023-03-26T05:38:08.766Z,6.59
2023-03-26T05:39:08.777Z,6.60
2023-03-26T05:40:08.743Z,6.63
2023-03-26T05:41:08.744Z,6.63
2023-03-26T05:42:08.721Z,6.57
2023-03-26T05:43:08.720Z,6.54
2023-03-26T05:44:08.722Z,6.49
2023-03-26T05:45:08.690Z,6.45
2023-03-26T05:46:08.730Z,6.44
2023-03-26T05:47:08.665Z,6.41
2023-03-26T05:48:08.733Z,6.41
2023-03-26T05:49:08.668Z,6.41
2023-03-26T05:50:08.640Z,6.42
2023-03-26T05:51:08.627Z,6.41
2023-03-26T05:52:08.618Z,6.38
2023-03-26T05:53:08.616Z,6.38
2023-03-26T05:54:08.678Z,6.38
2023-03-26T05:55:08.586Z,6.41
2023-03-26T05:56:08.588Z,6.39
2023-03-26T05:57:08.692Z,6.39
2023-03-26T05:58:08.550Z,6.38
2023-03-26T05:59:08.560Z,6.41
2023-03-26T06:00:08.550Z,6.42
2023-03-26T06:01:08.557Z,6.41
2023-03-26T06:02:08.524Z,6.41
2023-03-26T06:03:08.573Z,6.44
2023-03-26T06:04:08.570Z,6.46
2023-03-26T06:05:08.477Z,6.49
2023-03-26T06:06:08.468Z,6.56
2023-03-26T06:07:08.463Z,6.51
2023-03-26T06:08:08.454Z,6.52
2023-03-26T06:09:08.467Z,6.51
2023-03-26T06:10:08.436Z,6.52
2023-03-26T06:11:08.420Z,6.51
2023-03-26T06:12:08.408Z,6.51
2023-03-26T06:13:08.423Z,6.52
2023-03-26T06:14:08.409Z,6.51
2023-03-26T06:15:08.366Z,6.52
2023-03-26T06:16:08.510Z,6.51
2023-03-26T06:17:08.359Z,6.52
2023-03-26T06:18:08.441Z,6.54
2023-03-26T06:19:08.389Z,6.57
2023-03-26T06:20:09.496Z,6.60
2023-03-26T06:21:08.307Z,6.62
2023-03-26T06:22:08.339Z,6.66
2023-03-26T06:23:08.285Z,6.64
2023-03-26T06:24:08.320Z,6.72
2023-03-26T06:25:08.277Z,6.77
2023-03-26T06:26:08.270Z,6.77
2023-03-26T06:27:08.326Z,6.81
2023-03-26T06:28:08.246Z,6.88
2023-03-26T06:29:08.257Z,7.02
2023-03-26T06:30:08.222Z,7.13
2023-03-26T06:31:08.208Z,7.38
2023-03-26T06:32:19.135Z,7.51
2023-03-26T06:33:08.203Z,7.40
2023-03-26T06:34:08.201Z,7.36
2023-03-26T06:35:08.207Z,7.40
2023-03-26T06:36:08.214Z,7.58
2023-03-26T06:37:08.145Z,7.76
2023-03-26T06:38:08.147Z,7.91
2023-03-26T06:39:08.241Z,8.05
2023-03-26T06:40:08.120Z,8.12
2023-03-26T06:41:08.104Z,8.41
2023-03-26T06:42:08.106Z,8.49
2023-03-26T06:43:10.827Z,8.70
2023-03-26T06:44:08.102Z,8.64
2023-03-26T06:45:08.091Z,8.67
2023-03-26T06:46:08.109Z,8.60
2023-03-26T06:47:08.049Z,8.53
2023-03-26T06:48:08.273Z,8.53
2023-03-26T06:49:08.037Z,8.53
2023-03-26T06:50:08.012Z,8.49
2023-03-26T06:51:08.066Z,8.53
2023-03-26T06:52:08.033Z,8.61
2023-03-26T06:53:08.020Z,8.63
2023-03-26T06:54:08.010Z,8.60
2023-03-26T06:55:07.973Z,8.69
2023-03-26T06:56:09.139Z,8.82
2023-03-26T06:57:08.031Z,9.00
2023-03-26T06:58:07.915Z,9.03
2023-03-26T06:59:07.935Z,9.03
2023-03-26T07:00:07.965Z,8.88
2023-03-26T07:01:07.946Z,8.85
2023-03-26T07:02:07.873Z,8.99
2023-03-26T07:03:07.953Z,8.76
2023-03-26T07:04:07.908Z,8.60
2023-03-26T07:05:07.871Z,8.84
2023-03-26T07:06:07.872Z,9.23
2023-03-26T07:07:07.834Z,9.77
2023-03-26T07:08:07.853Z,10.17
2023-03-26T07:09:07.859Z,10.30
2023-03-26T07:10:07.816Z,10.37
2023-03-26T07:11:07.798Z,10.64
2023-03-26T07:12:07.780Z,11.23
2023-03-26T07:13:07.771Z,11.15
2023-03-26T07:14:07.798Z,11.14
2023-03-26T07:15:07.752Z,10.81
2023-03-26T07:16:07.801Z,10.90
2023-03-26T07:17:07.746Z,10.89
2023-03-26T07:18:07.712Z,10.86
2023-03-26T07:19:07.732Z,10.67
2023-03-26T07:20:07.686Z,10.28
2023-03-26T07:21:07.690Z,10.19
2023-03-26T07:22:07.721Z,10.31
2023-03-26T07:23:07.677Z,10.17
2023-03-26T07:24:07.670Z,9.84
2023-03-26T07:25:07.854Z,9.77
2023-03-26T07:26:07.628Z,9.47
2023-03-26T07:27:07.624Z,9.92
2023-03-26T07:28:07.615Z,9.98
2023-03-26T07:29:07.625Z,10.13
2023-03-26T07:30:07.586Z,10.07
2023-03-26T07:31:07.589Z,10.15
2023-03-26T07:32:07.673Z,9.99
2023-03-26T07:33:07.556Z,10.13
2023-03-26T07:34:07.560Z,10.17
2023-03-26T07:35:07.579Z,10.02
2023-03-26T07:36:07.530Z,10.04
2023-03-26T07:37:07.525Z,10.01
2023-03-26T07:38:07.516Z,10.05
2023-03-26T07:39:07.551Z,9.87
2023-03-26T07:40:07.488Z,9.54
2023-03-26T07:41:07.488Z,9.31
2023-03-26T07:42:07.456Z,9.21
2023-03-26T07:43:07.453Z,9.16
2023-03-26T07:44:07.465Z,9.00
2023-03-26T07:45:07.455Z,9.03
2023-03-26T07:46:07.455Z,9.08
2023-03-26T07:47:07.410Z,8.97
2023-03-26T07:48:07.393Z,8.94
2023-03-26T07:49:07.382Z,8.92
2023-03-26T07:50:07.411Z,8.85
2023-03-26T07:51:07.364Z,8.82
2023-03-26T07:52:07.361Z,8.76
2023-03-26T07:53:07.351Z,8.87
2023-03-26T07:54:07.330Z,8.95
2023-03-26T07:55:07.343Z,8.94
2023-03-26T07:56:07.328Z,8.81
2023-03-26T07:57:07.388Z,8.87
2023-03-26T07:58:07.302Z,8.91
2023-03-26T07:59:07.275Z,8.91
2023-03-26T08:00:07.331Z,8.81
2023-03-26T08:01:07.263Z,8.71
2023-03-26T08:02:07.257Z,8.61
2023-03-26T08:03:07.496Z,8.53
2023-03-26T08:04:23.640Z,8.48
2023-03-26T08:05:07.273Z,8.42
2023-03-26T08:06:07.199Z,8.37
2023-03-26T08:07:07.233Z,8.38
2023-03-26T08:08:07.185Z,8.41
2023-03-26T08:09:07.223Z,8.42
2023-03-26T08:10:07.246Z,8.36
2023-03-26T08:11:07.160Z,8.33
2023-03-26T08:12:07.157Z,8.28
2023-03-26T08:13:07.125Z,8.33
2023-03-26T08:14:07.119Z,8.42
2023-03-26T08:15:07.134Z,8.44
2023-03-26T08:16:07.113Z,8.42
2023-03-26T08:17:07.098Z,8.52
2023-03-26T08:18:07.111Z,8.58
2023-03-26T08:19:07.085Z,8.61
2023-03-26T08:20:07.072Z,8.53
2023-03-26T08:21:07.062Z,8.61
2023-03-26T08:22:07.037Z,8.67
2023-03-26T08:23:07.029Z,8.78
2023-03-26T08:24:07.006Z,8.74
2023-03-26T08:25:07.030Z,8.74
2023-03-26T08:26:07.025Z,8.69
2023-03-26T08:27:06.996Z,8.69
2023-03-26T08:28:06.964Z,8.58
2023-03-26T08:29:06.964Z,8.56
2023-03-26T08:30:06.959Z,8.49
2023-03-26T08:31:06.951Z,8.51
2023-03-26T08:32:06.945Z,8.48
2023-03-26T08:33:06.985Z,8.52
2023-03-26T08:34:06.901Z,8.58
2023-03-26T08:35:06.921Z,8.55
2023-03-26T08:36:06.951Z,8.55
2023-03-26T08:37:06.933Z,8.49
2023-03-26T08:38:06.852Z,8.49
2023-03-26T08:39:06.940Z,8.49
2023-03-26T08:40:06.852Z,8.51
2023-03-26T08:41:06.854Z,8.51
2023-03-26T08:42:06.821Z,8.48
2023-03-26T08:43:06.829Z,8.45
2023-03-26T08:44:06.787Z,8.45
2023-03-26T08:45:06.813Z,8.49
2023-03-26T08:46:06.799Z,8.49
2023-03-26T08:47:06.761Z,8.52
2023-03-26T08:48:06.791Z,8.51
2023-03-26T08:49:06.756Z,8.53
2023-03-26T08:50:06.751Z,8.61
2023-03-26T08:51:06.732Z,8.64
2023-03-26T08:52:06.745Z,8.64
2023-03-26T08:53:06.703Z,8.64
2023-03-26T08:54:06.683Z,8.56
2023-03-26T08:55:06.707Z,8.58
2023-03-26T08:56:06.658Z,8.63
2023-03-26T08:57:06.707Z,8.73
2023-03-26T08:58:06.652Z,8.76
2023-03-26T08:59:06.637Z,8.74
2023-03-26T09:00:06.641Z,8.76
2023-03-26T09:01:06.629Z,8.74
2023-03-26T09:02:06.640Z,8.74
2023-03-26T09:03:06.622Z,8.73
2023-03-26T09:04:06.649Z,8.71
2023-03-26T09:05:06.605Z,8.73
2023-03-26T09:06:06.557Z,8.70
2023-03-26T09:07:06.563Z,8.73
2023-03-26T09:08:06.542Z,8.76
2023-03-26T09:09:06.542Z,8.84
2023-03-26T09:10:06.542Z,8.88
2023-03-26T09:11:06.524Z,8.87
2023-03-26T09:12:06.505Z,8.88
2023-03-26T09:13:06.511Z,8.81
2023-03-26T09:14:06.477Z,8.79
2023-03-26T09:15:06.571Z,8.74
2023-03-26T09:16:06.498Z,8.76
2023-03-26T09:17:06.451Z,8.70
2023-03-26T09:18:06.568Z,8.67
2023-03-26T09:19:06.430Z,8.67
2023-03-26T09:20:06.465Z,8.66
2023-03-26T09:21:06.439Z,8.64
2023-03-26T09:22:06.403Z,8.60
2023-03-26T09:23:06.386Z,8.63
2023-03-26T09:24:06.422Z,8.66
2023-03-26T09:25:06.427Z,8.67
2023-03-26T09:26:06.368Z,8.70
2023-03-26T09:27:06.351Z,8.71
2023-03-26T09:28:06.364Z,8.79
2023-03-26T09:29:06.354Z,8.73
2023-03-26T09:30:06.652Z,8.71
2023-03-26T09:31:06.341Z,8.71
2023-03-26T09:32:06.294Z,8.82
2023-03-26T09:33:06.359Z,8.92
2023-03-26T09:34:06.264Z,8.94
2023-03-26T09:35:06.320Z,8.95
2023-03-26T09:36:06.256Z,8.95
2023-03-26T09:37:06.250Z,8.97
2023-03-26T09:38:06.241Z,9.06
2023-03-26T09:39:06.224Z,9.10
2023-03-26T09:40:06.233Z,9.14
2023-03-26T09:41:06.207Z,9.13
2023-03-26T09:42:06.182Z,9.10
2023-03-26T09:43:06.178Z,9.03
2023-03-26T09:44:06.167Z,9.00
2023-03-26T09:45:06.184Z,8.99
2023-03-26T09:46:06.186Z,9.00
2023-03-26T09:47:06.168Z,9.02
2023-03-26T09:48:06.125Z,8.95
2023-03-26T09:49:06.109Z,8.92
2023-03-26T09:50:06.125Z,8.94
2023-03-26T09:51:06.124Z,8.89
2023-03-26T09:52:06.079Z,8.89
2023-03-26T09:53:06.065Z,8.91
2023-03-26T09:54:06.061Z,8.97
2023-03-26T09:55:06.064Z,9.04
2023-03-26T09:56:06.034Z,9.11
2023-03-26T09:57:06.048Z,9.08
2023-03-26T09:58:06.039Z,9.13
2023-03-26T09:59:06.000Z,9.10
2023-03-26T10:00:06.019Z,9.14
2023-03-26T10:01:06.067Z,9.21
2023-03-26T10:02:05.978Z,9.22
2023-03-26T10:03:06.002Z,9.14
2023-03-26T10:04:05.952Z,9.11
2023-03-26T10:05:06.028Z,9.25
2023-03-26T10:06:05.927Z,9.28
2023-03-26T10:07:05.931Z,9.28
2023-03-26T10:08:05.928Z,9.37
2023-03-26T10:09:05.921Z,9.28
2023-03-26T10:10:05.948Z,9.22
2023-03-26T10:11:05.882Z,9.13
2023-03-26T10:12:05.862Z,9.21
2023-03-26T10:13:14.509Z,9.22
2023-03-26T10:14:05.851Z,9.29
2023-03-26T10:15:05.889Z,9.26
2023-03-26T10:16:05.818Z,9.23
2023-03-26T10:17:05.856Z,9.22
2023-03-26T10:18:27.652Z,9.22
2023-03-26T10:19:05.813Z,9.13
2023-03-26T10:20:06.348Z,9.06
2023-03-26T10:21:05.789Z,8.97
2023-03-26T10:22:05.968Z,8.94
2023-03-26T10:23:05.750Z,8.88
2023-03-26T10:24:05.735Z,8.85
2023-03-26T10:25:05.807Z,8.92
2023-03-26T10:26:05.711Z,8.97
2023-03-26T10:27:09.730Z,9.06
2023-03-26T10:28:05.699Z,9.08
2023-03-26T10:29:05.707Z,9.06
2023-03-26T10:30:05.858Z,9.02
2023-03-26T10:31:05.681Z,8.97
2023-03-26T10:32:05.646Z,9.00
2023-03-26T10:33:05.705Z,9.03
2023-03-26T10:34:05.623Z,9.08
2023-03-26T10:35:05.655Z,9.03
2023-03-26T10:36:05.651Z,9.02
2023-03-26T10:37:05.612Z,8.95
2023-03-26T10:38:05.573Z,8.88
2023-03-26T10:39:05.583Z,8.88
2023-03-26T10:40:05.577Z,8.87
2023-03-26T10:41:05.564Z,8.78
2023-03-26T10:42:05.540Z,8.69
2023-03-26T10:43:05.540Z,8.67
2023-03-26T10:44:08.833Z,8.71
2023-03-26T10:45:07.351Z,8.71
2023-03-26T10:46:05.555Z,8.71
2023-03-26T10:47:05.490Z,8.69
2023-03-26T10:48:05.512Z,8.63
2023-03-26T10:49:05.480Z,8.63
2023-03-26T10:50:05.477Z,8.64
2023-03-26T10:51:05.476Z,8.71
2023-03-26T10:52:05.431Z,8.64
2023-03-26T10:53:05.424Z,8.60
2023-03-26T10:54:05.417Z,8.56
2023-03-26T10:55:05.426Z,8.53
2023-03-26T10:56:05.401Z,8.56
2023-03-26T10:57:05.388Z,8.49
2023-03-26T10:58:05.372Z,8.51
2023-03-26T10:59:05.358Z,8.55
2023-03-26T11:00:05.343Z,8.56
2023-03-26T11:01:06.323Z,8.55
2023-03-26T11:02:05.329Z,8.46
2023-03-26T11:03:05.346Z,8.46
2023-03-26T11:04:05.318Z,8.48
2023-03-26T11:05:05.322Z,8.37
2023-03-26T11:06:05.303Z,8.31
2023-03-26T11:07:05.288Z,8.33
2023-03-26T11:08:05.311Z,8.30
2023-03-26T11:09:05.252Z,8.20
2023-03-26T11:10:05.272Z,8.18
2023-03-26T11:11:05.265Z,8.18
2023-03-26T11:12:25.597Z,8.19
2023-03-26T11:13:05.211Z,8.20
2023-03-26T11:14:05.233Z,8.20
2023-03-26T11:15:05.200Z,8.20
2023-03-26T11:16:05.257Z,8.28
2023-03-26T11:17:05.171Z,8.23
2023-03-26T11:18:05.186Z,8.28
2023-03-26T11:19:05.760Z,8.31
2023-03-26T11:20:05.182Z,8.31
2023-03-26T11:21:19.554Z,8.26
2023-03-26T11:22:05.121Z,8.28
2023-03-26T11:23:05.106Z,8.24
2023-03-26T11:24:06.353Z,8.30
2023-03-26T11:25:05.741Z,8.44
2023-03-26T11:26:05.118Z,8.42
2023-03-26T11:27:15.017Z,8.41
2023-03-26T11:28:05.063Z,8.30
2023-03-26T11:29:31.767Z,8.26
2023-03-26T11:30:05.045Z,8.18
2023-03-26T11:31:05.113Z,8.19
2023-03-26T11:32:05.018Z,8.19
2023-03-26T11:33:05.055Z,8.30
2023-03-26T11:34:05.001Z,8.26
2023-03-26T11:35:05.002Z,8.23
2023-03-26T11:36:05.027Z,8.26
2023-03-26T11:37:04.975Z,8.23
2023-03-26T11:38:04.978Z,8.20
2023-03-26T11:39:04.948Z,8.18
2023-03-26T11:40:04.949Z,8.19
2023-03-26T11:41:04.934Z,8.12
2023-03-26T11:42:04.910Z,8.01
2023-03-26T11:43:04.895Z,7.91
2023-03-26T11:44:04.895Z,7.90
2023-03-26T11:45:04.896Z,7.91
2023-03-26T11:46:04.900Z,7.90
2023-03-26T11:47:04.854Z,7.90
2023-03-26T11:48:04.892Z,7.91
2023-03-26T11:49:04.835Z,7.91
2023-03-26T11:50:04.908Z,7.90
2023-03-26T11:51:04.815Z,7.88
2023-03-26T11:52:04.813Z,7.85
2023-03-26T11:53:04.791Z,7.79
2023-03-26T11:54:04.822Z,7.79
2023-03-26T11:55:04.787Z,7.72
2023-03-26T11:56:04.785Z,7.63
2023-03-26T11:57:07.225Z,7.66
2023-03-26T11:58:04.739Z,7.63
2023-03-26T11:59:04.731Z,7.57
2023-03-26T12:00:04.775Z,7.58
2023-03-26T12:01:04.715Z,7.58
2023-03-26T12:02:04.755Z,7.56
2023-03-26T12:03:04.766Z,7.56
2023-03-26T12:04:04.721Z,7.57
2023-03-26T12:05:04.779Z,7.60
2023-03-26T12:06:04.788Z,7.61
2023-03-26T12:07:04.634Z,7.60
2023-03-26T12:08:04.638Z,7.56
2023-03-26T12:09:04.618Z,7.54
2023-03-26T12:10:18.334Z,7.53
2023-03-26T12:11:04.624Z,7.58
2023-03-26T12:12:04.584Z,7.60
2023-03-26T12:13:04.577Z,7.66
2023-03-26T12:14:04.572Z,7.58
2023-03-26T12:15:04.553Z,7.61
2023-03-26T12:16:04.587Z,7.56
2023-03-26T12:17:04.540Z,7.56
2023-03-26T12:18:04.585Z,7.57
2023-03-26T12:19:04.517Z,7.60
2023-03-26T12:20:04.523Z,7.60
2023-03-26T12:21:04.513Z,7.60
2023-03-26T12:22:04.486Z,7.67
2023-03-26T12:23:04.468Z,7.66
2023-03-26T12:24:04.481Z,7.48
2023-03-26T12:25:04.448Z,7.42
2023-03-26T12:26:04.460Z,7.33
2023-03-26T12:27:04.424Z,7.29
2023-03-26T12:28:04.415Z,7.14
2023-03-26T12:29:04.412Z,7.11
2023-03-26T12:30:04.407Z,6.97
2023-03-26T12:31:04.400Z,6.92
2023-03-26T12:32:04.420Z,6.93
2023-03-26T12:33:04.394Z,6.92
2023-03-26T12:34:04.375Z,6.89
2023-03-26T12:35:04.338Z,6.89
2023-03-26T12:36:04.642Z,6.95
2023-03-26T12:37:04.313Z,6.93
2023-03-26T12:38:04.325Z,6.96
2023-03-26T12:40:05.972Z,7.02
2023-03-26T12:40:19.453Z,7.05
2023-03-26T12:41:04.761Z,7.07
2023-03-26T12:44:42.836Z,7.07
2023-03-26T12:44:59.657Z,6.96
2023-03-26T12:45:05.644Z,6.88
2023-03-26T12:47:56.221Z,6.92
2023-03-26T12:48:07.311Z,6.87
2023-03-26T12:48:12.845Z,6.93
2023-03-26T12:49:12.914Z,6.88
2023-03-26T12:50:12.771Z,6.84
2023-03-26T12:51:12.788Z,6.85
2023-03-26T12:52:12.781Z,6.87
2023-03-26T12:53:12.741Z,6.88
2023-03-26T12:54:12.716Z,6.87
2023-03-26T12:57:30.775Z,6.85
2023-03-26T12:58:31.684Z,6.82
2023-03-26T12:59:31.682Z,6.82
2023-03-26T13:00:31.657Z,6.75
2023-03-26T13:01:31.704Z,6.79
2023-03-26T13:02:31.730Z,6.77
2023-03-26T13:03:31.675Z,6.75
2023-03-26T13:04:31.627Z,6.78
2023-03-26T13:05:31.608Z,6.74
2023-03-26T13:06:31.615Z,6.75
2023-03-26T13:07:31.607Z,6.74
2023-03-26T13:08:31.584Z,6.77
2023-03-26T13:09:31.576Z,6.81
2023-03-26T13:10:31.569Z,6.82
2023-03-26T13:11:31.570Z,6.81
2023-03-26T13:12:31.536Z,6.81
2023-03-26T13:13:31.530Z,6.85
2023-03-26T13:14:31.513Z,6.89
2023-03-26T13:15:31.509Z,6.95
2023-03-26T13:16:31.529Z,6.93
2023-03-26T13:17:31.506Z,6.95
2023-03-26T13:18:31.476Z,6.96
2023-03-26T13:19:31.483Z,6.96
2023-03-26T13:20:31.458Z,7.02
2023-03-26T13:21:31.504Z,7.10
2023-03-26T13:22:31.440Z,7.15
2023-03-26T13:23:31.437Z,7.18